Time;durP1;ratioP1;P1;durP2;ratioP2;P2;SDS_P1;SDS_P2;PMS_P1;PMS_P2;Temp;Humidity;BMP_temperature;BMP_pressure;BME280_temperature;BME280_humidity;BME280_pressure;Samples;Min_cycle;Max_cycle;Signal;HPM_P1;HPM_P2
2023/06/27 00:00:09;;;;;;;4.33;2.40;;;;;;;25.68;34.06;99050.50;6889240;28;20596;-87
2023/06/27 00:03:30;;;;;;;3.07;2.13;;;;;;;25.62;34.17;99046.16;6888950;28;20220;-87
2023/06/27 00:06:52;;;;;;;6.20;2.40;;;;;;;25.99;33.64;99041.53;6891508;28;20317;-87
2023/06/27 00:10:13;;;;;;;2.90;1.90;;;;;;;25.59;34.27;99057.81;6889074;28;20258;-87
2023/06/27 00:13:40;;;;;;;7.23;2.30;;;;;;;25.06;34.41;98973.41;6888584;28;20236;-87
2023/06/27 00:17:02;;;;;;;4.70;2.17;;;;;;;25.68;34.26;99053.25;6885558;28;20196;-87
2023/06/27 00:20:23;;;;;;;5.50;2.37;;;;;;;25.49;34.50;99044.94;6885827;28;20229;-87
2023/06/27 00:23:47;;;;;;;4.10;2.20;;;;;;;25.78;34.00;99062.22;6885351;28;20200;-87
2023/06/27 00:27:08;;;;;;;7.27;2.67;;;;;;;26.06;33.88;99061.31;6884757;28;20272;-87
2023/06/27 00:30:31;;;;;;;5.00;2.27;;;;;;;26.10;33.82;99061.53;6885088;28;20889;-87
2023/06/27 00:33:57;;;;;;;3.13;2.67;;;;;;;24.96;35.55;99028.72;6884277;28;20253;-87
2023/06/27 00:37:18;;;;;;;4.30;2.53;;;;;;;25.25;35.54;99062.66;6884986;28;20284;-87
2023/06/27 00:40:40;;;;;;;3.90;2.20;;;;;;;25.15;36.25;99065.50;6885535;28;20711;-87
2023/06/27 00:44:02;;;;;;;4.43;2.10;;;;;;;25.20;36.12;99066.25;6885430;28;20330;-87
2023/06/27 00:47:25;;;;;;;4.43;2.43;;;;;;;25.25;35.74;99065.41;6884939;28;20226;-87
2023/06/27 00:50:48;;;;;;;4.37;2.90;;;;;;;24.95;35.45;99014.09;6884973;28;20273;-87
2023/06/27 00:54:09;;;;;;;6.83;2.20;;;;;;;24.55;36.57;99014.47;6885289;28;20262;-87
2023/06/27 00:57:31;;;;;;;4.07;2.43;;;;;;;25.00;36.14;99063.72;6884231;28;20297;-87
2023/06/27 01:00:53;;;;;;;5.33;2.40;;;;;;;24.40;37.57;99069.75;6885124;28;20719;-88
2023/06/27 01:04:16;;;;;;;6.60;3.03;;;;;;;23.90;37.48;98990.22;6885095;28;20306;-87
2023/06/27 01:07:39;;;;;;;3.90;2.37;;;;;;;24.76;37.00;99076.66;6884190;28;20255;-88
2023/06/27 01:11:04;;;;;;;3.33;2.37;;;;;;;24.77;37.24;99080.25;6884295;28;20315;-88
2023/06/27 01:14:28;;;;;;;6.20;2.60;;;;;;;25.11;36.55;99087.34;6884900;28;20256;-88
2023/06/27 01:17:50;;;;;;;3.80;2.70;;;;;;;25.18;36.65;99087.81;6884196;28;20661;-87
2023/06/27 01:21:13;;;;;;;5.13;2.50;;;;;;;24.56;36.72;99010.63;6884514;28;20244;-88
2023/06/27 01:24:37;;;;;;;5.50;2.70;;;;;;;25.02;36.59;99091.81;6884736;28;20220;-88
2023/06/27 01:27:58;;;;;;;2.90;2.27;;;;;;;24.88;37.30;99090.03;6884015;28;20221;-87
2023/06/27 01:31:23;;;;;;;3.40;2.17;;;;;;;24.93;37.40;99088.06;6884509;28;20228;-87
2023/06/27 01:35:37;;;;;;;4.03;2.10;;;;;;;24.67;38.15;99083.09;6883549;28;20291;-85
2023/06/27 01:39:03;;;;;;;3.53;2.40;;;;;;;24.58;38.55;99065.50;6883371;28;20328;-87
2023/06/27 01:42:29;;;;;;;3.17;2.30;;;;;;;24.22;39.63;99084.22;6883318;28;20643;-88
2023/06/27 01:45:51;;;;;;;2.63;2.43;;;;;;;24.30;39.56;99086.38;6883947;28;20198;-88
2023/06/27 01:49:13;;;;;;;2.97;2.10;;;;;;;23.69;40.48;99087.81;6883112;28;20237;-88
2023/06/27 01:52:34;;;;;;;4.07;2.57;;;;;;;23.15;42.18;99075.06;6884068;28;20216;-88
2023/06/27 01:55:56;;;;;;;5.67;2.80;;;;;;;22.44;42.55;99011.16;6884243;28;20209;-87
2023/06/27 01:59:19;;;;;;;5.60;2.80;;;;;;;23.25;41.73;99088.81;6883307;28;20225;-88
2023/06/27 02:02:40;;;;;;;5.80;2.70;;;;;;;23.37;40.79;99018.59;6883648;28;20292;-87
2023/06/27 02:06:02;;;;;;;5.17;2.60;;;;;;;23.72;40.48;99078.19;6889222;28;20715;-88
2023/06/27 02:09:24;;;;;;;2.67;2.27;;;;;;;24.09;39.79;99082.13;6910086;28;20686;-88
2023/06/27 02:12:45;;;;;;;7.93;2.70;;;;;;;24.16;39.25;99079.03;6910638;28;20208;-87
2023/06/27 02:16:09;;;;;;;5.60;2.60;;;;;;;24.00;39.94;99088.50;6910737;28;20630;-87
2023/06/27 02:19:30;;;;;;;4.07;2.30;;;;;;;23.78;40.16;99079.78;6909568;28;20225;-87
2023/06/27 02:22:52;;;;;;;3.60;2.40;;;;;;;23.73;40.49;99060.53;6910606;28;20233;-87
2023/06/27 02:26:13;;;;;;;5.10;2.30;;;;;;;23.03;42.19;99089.13;6909953;28;20213;-88
2023/06/27 02:29:35;;;;;;;3.83;2.60;;;;;;;23.24;41.60;99088.00;6909911;28;20766;-88
2023/06/27 02:33:11;;;;;;;3.10;2.63;;;;;;;23.22;41.73;99070.94;6909616;28;20355;-88
2023/06/27 02:36:32;;;;;;;3.60;2.50;;;;;;;23.34;41.88;99071.47;6909849;28;20622;-88
2023/06/27 02:39:54;;;;;;;3.37;2.50;;;;;;;23.29;41.65;99065.13;6910457;28;20278;-88
2023/06/27 02:43:16;;;;;;;2.77;2.50;;;;;;;23.02;42.10;99056.41;6912008;28;20215;-88
2023/06/27 02:46:37;;;;;;;4.03;2.27;;;;;;;22.99;42.48;99074.28;6911673;28;20299;-87
2023/06/27 02:50:00;;;;;;;3.83;2.50;;;;;;;23.18;41.89;99080.84;6911801;28;20768;-88
2023/06/27 02:53:21;;;;;;;5.17;2.53;;;;;;;22.32;42.52;98972.13;6910703;28;20216;-87
2023/06/27 02:56:43;;;;;;;4.30;2.97;;;;;;;23.11;42.44;99083.06;6914133;28;20211;-88
2023/06/27 03:00:06;;;;;;;4.10;2.80;;;;;;;22.24;42.71;98958.91;6914338;28;20323;-88
2023/06/27 03:03:27;;;;;;;4.40;2.40;;;;;;;23.05;42.48;99080.59;6914439;28;20222;-87
2023/06/27 03:06:50;;;;;;;5.53;2.47;;;;;;;22.05;43.12;98965.25;6913825;28;20246;-87
2023/06/27 03:10:12;;;;;;;3.97;2.90;;;;;;;22.94;42.49;99090.78;6914530;28;20290;-87
2023/06/27 03:13:33;;;;;;;4.77;2.63;;;;;;;22.92;42.65;99079.25;6914344;28;20197;-87
2023/06/27 03:16:55;;;;;;;4.53;2.50;;;;;;;21.75;44.04;99015.47;6914112;28;20205;-87
2023/06/27 03:20:17;;;;;;;3.70;2.63;;;;;;;21.93;45.61;99096.47;6914499;28;20228;-87
2023/06/27 03:23:39;;;;;;;3.93;2.30;;;;;;;22.28;44.36;99093.81;6914518;28;20210;-87
2023/06/27 03:27:01;;;;;;;5.93;2.50;;;;;;;22.65;43.42;99088.91;6913277;28;20763;-87
2023/06/27 03:30:22;;;;;;;4.67;2.80;;;;;;;22.57;43.12;99094.94;6914299;28;20359;-87
2023/06/27 03:34:03;;;;;;;3.60;2.40;;;;;;;22.06;44.64;99085.81;6913209;28;20206;-88
2023/06/27 03:37:25;;;;;;;5.07;2.77;;;;;;;22.33;44.42;99094.66;6913670;28;20870;-87
2023/06/27 03:40:48;;;;;;;7.13;2.90;;;;;;;22.17;43.24;99021.56;6913708;28;20264;-88
2023/06/27 03:44:09;;;;;;;5.87;2.70;;;;;;;22.78;43.21;99082.84;6914315;28;20216;-87
2023/06/27 03:47:31;;;;;;;4.70;2.27;;;;;;;22.58;43.45;99086.44;6914326;28;20233;-87
2023/06/27 03:50:52;;;;;;;4.90;2.43;;;;;;;22.80;43.16;99091.63;6913601;28;20314;-87
2023/06/27 03:54:14;;;;;;;5.40;2.63;;;;;;;22.30;44.25;99100.66;6914341;28;20276;-87
2023/06/27 03:57:37;;;;;;;4.50;2.40;;;;;;;22.47;44.19;99101.25;6913246;28;20211;-87
2023/06/27 04:00:58;;;;;;;4.80;2.83;;;;;;;22.49;44.10;99114.75;6913102;28;20317;-87
2023/06/27 04:04:20;;;;;;;5.80;2.47;;;;;;;22.78;43.16;99113.09;6913431;28;20232;-87
2023/06/27 04:07:41;;;;;;;5.93;2.63;;;;;;;22.71;42.75;99091.38;6906696;28;20369;-87
2023/06/27 04:11:03;;;;;;;3.63;2.90;;;;;;;22.35;43.25;99050.38;6914842;28;20256;-88
2023/06/27 04:14:27;;;;;;;3.37;2.63;;;;;;;22.76;42.99;99099.63;6913157;28;20248;-87
2023/06/27 04:17:49;;;;;;;5.50;2.60;;;;;;;22.93;42.91;99108.41;6912424;28;20268;-87
2023/06/27 04:21:10;;;;;;;3.97;2.53;;;;;;;22.85;43.35;99097.97;6913504;28;20243;-88
2023/06/27 04:24:32;;;;;;;2.97;2.43;;;;;;;22.87;42.90;99109.50;6919235;28;20310;-87
2023/06/27 04:27:53;;;;;;;3.73;2.53;;;;;;;22.80;43.20;99092.47;6908807;28;20216;-87
2023/06/27 04:31:16;;;;;;;4.13;2.67;;;;;;;22.75;43.78;99108.13;6903076;28;20219;-88
2023/06/27 04:35:03;;;;;;;4.30;3.00;;;;;;;22.62;44.44;99111.44;6899847;28;20209;-88
2023/06/27 04:38:25;;;;;;;4.40;2.30;;;;;;;22.72;43.80;99115.00;6885156;28;20188;-87
2023/06/27 04:41:46;;;;;;;3.23;2.20;;;;;;;22.76;43.66;99105.13;6885761;28;20282;-87
2023/06/27 04:45:08;;;;;;;4.53;2.50;;;;;;;22.85;43.85;99116.38;6885401;28;20202;-88
2023/06/27 04:48:31;;;;;;;6.70;2.50;;;;;;;22.14;44.22;99011.09;6884473;28;20324;-87
2023/06/27 04:51:53;;;;;;;2.70;2.50;;;;;;;22.28;45.29;99124.84;6885579;28;20759;-87
2023/06/27 04:55:15;;;;;;;6.60;3.17;;;;;;;22.70;44.25;99117.22;6885531;28;20214;-82
2023/06/27 04:58:37;;;;;;;4.70;2.57;;;;;;;23.09;43.38;99126.53;6885740;28;20577;-83
2023/06/27 05:01:58;;;;;;;4.37;2.67;;;;;;;22.99;43.83;99125.69;6887823;28;20315;-86
2023/06/27 05:05:21;;;;;;;4.27;2.83;;;;;;;23.32;43.61;99131.47;6885961;28;20335;-86
2023/06/27 05:08:44;;;;;;;8.93;2.60;;;;;;;23.41;43.34;99137.19;6884971;28;20234;-87
2023/06/27 05:12:06;;;;;;;5.27;2.60;;;;;;;23.54;42.41;99107.16;6885109;28;20204;-87
2023/06/27 05:15:27;;;;;;;4.37;2.50;;;;;;;23.75;42.35;99135.44;6884784;28;20211;-86
2023/06/27 05:18:49;;;;;;;4.97;2.53;;;;;;;23.78;42.32;99134.88;6883274;28;20356;-85
2023/06/27 05:22:13;;;;;;;3.63;2.63;;;;;;;23.87;42.11;99136.78;6886980;28;20256;-85
2023/06/27 05:25:35;;;;;;;3.87;2.50;;;;;;;24.02;41.74;99127.63;6911015;28;20681;-85
2023/06/27 05:28:57;;;;;;;4.57;2.80;;;;;;;23.86;42.54;99132.34;6911206;28;20235;-87
2023/06/27 05:32:19;;;;;;;7.17;2.67;;;;;;;23.98;42.55;99132.88;6912224;28;20211;-86
2023/06/27 05:35:54;;;;;;;6.60;2.57;;;;;;;23.19;44.04;99126.53;6911975;28;20209;-85
2023/06/27 05:39:17;;;;;;;5.37;2.67;;;;;;;23.52;43.66;99106.63;6912204;28;20273;-88
2023/06/27 05:42:39;;;;;;;5.50;2.40;;;;;;;23.91;42.08;99131.53;6912229;28;20708;-85
2023/06/27 05:46:00;;;;;;;4.17;2.63;;;;;;;23.99;41.72;99136.44;6911484;28;20209;-85
2023/06/27 05:49:22;;;;;;;3.40;3.00;;;;;;;24.38;41.40;99140.06;6913338;28;20235;-85
2023/06/27 05:52:43;;;;;;;4.77;2.53;;;;;;;24.89;39.68;99144.94;6911369;28;20211;-85
2023/06/27 05:56:07;;;;;;;5.33;2.67;;;;;;;24.77;38.26;99083.81;6910939;28;20274;-84
2023/06/27 05:59:28;;;;;;;3.23;2.43;;;;;;;24.92;39.47;99140.78;6911352;28;20223;-85
2023/06/27 06:02:50;;;;;;;5.23;2.63;;;;;;;24.85;39.75;99146.66;6913346;28;20212;-82
2023/06/27 06:06:12;;;;;;;4.47;2.60;;;;;;;25.39;37.96;99136.19;6911738;28;20733;-84
2023/06/27 06:09:33;;;;;;;4.83;2.53;;;;;;;25.54;37.67;99137.97;6910652;28;20231;-85
2023/06/27 06:12:56;;;;;;;3.40;2.50;;;;;;;25.81;35.90;99127.13;6911571;28;20211;-84
2023/06/27 06:16:18;;;;;;;7.50;2.50;;;;;;;25.69;35.70;99129.50;6911947;28;20305;-87
2023/06/27 06:19:39;;;;;;;3.70;2.53;;;;;;;25.69;35.50;99102.69;6911095;28;20223;-84
2023/06/27 06:23:01;;;;;;;7.73;2.90;;;;;;;25.39;35.08;99118.81;6912477;28;20300;-86
2023/06/27 06:26:22;;;;;;;5.10;2.83;;;;;;;25.72;35.18;99135.25;6912642;28;20215;-84
2023/06/27 06:29:45;;;;;;;3.97;2.20;;;;;;;24.42;34.54;99130.94;6909470;28;20723;-85
2023/06/27 06:33:07;;;;;;;6.27;2.60;;;;;;;24.93;33.60;99134.97;6916089;28;20691;-84
2023/06/27 06:36:28;;;;;;;2.23;2.00;;;;;;;24.09;34.90;99145.50;6918257;28;20196;-85
2023/06/27 06:39:50;;;;;;;2.70;1.90;;;;;;;25.06;33.55;99138.97;6918562;28;20224;-85
2023/06/27 06:43:11;;;;;;;3.03;2.00;;;;;;;25.46;32.31;99133.06;6916587;28;20302;-84
2023/06/27 06:46:35;;;;;;;3.87;2.13;;;;;;;25.47;31.76;99138.31;6915234;28;20260;-85
2023/06/27 06:49:56;;;;;;;5.63;2.30;;;;;;;25.34;32.25;99139.00;6915983;28;20906;-85
2023/06/27 06:53:18;;;;;;;2.90;2.40;;;;;;;24.45;33.02;99122.09;6915802;28;20201;-85
2023/06/27 06:56:39;;;;;;;3.63;2.07;;;;;;;25.83;30.72;99142.28;6915714;28;20287;-84
2023/06/27 07:00:01;;;;;;;6.13;1.87;;;;;;;26.16;30.76;99144.09;6911145;28;20383;-85
2023/06/27 07:03:59;;;;;;;7.57;2.13;;;;;;;25.33;30.12;99020.59;6921567;28;20693;-84
2023/06/27 07:07:25;;;;;;;4.90;2.37;;;;;;;26.83;29.36;99151.94;6912948;28;20215;-85
2023/06/27 07:10:47;;;;;;;4.67;2.37;;;;;;;25.74;29.98;99149.59;6919581;28;20367;-85
2023/06/27 07:14:08;;;;;;;4.40;2.73;;;;;;;26.10;29.29;99147.22;6920775;28;20204;-86
2023/06/27 07:17:30;;;;;;;6.33;2.57;;;;;;;26.10;30.21;99138.94;6908409;28;20216;-85
2023/06/27 07:20:51;;;;;;;3.87;1.90;;;;;;;26.20;30.52;99136.84;6917491;28;20231;-85
2023/06/27 07:24:14;;;;;;;9.50;2.53;;;;;;;26.06;29.92;99138.69;6914225;28;20537;-86
2023/06/27 07:27:35;;;;;;;4.47;2.40;;;;;;;25.72;30.70;99055.13;6913836;28;20191;-85
2023/06/27 07:30:57;;;;;;;4.10;2.07;;;;;;;26.27;29.82;99140.06;6914175;28;20326;-86
2023/06/27 07:34:21;;;;;;;3.93;2.40;;;;;;;25.89;30.53;99130.06;6916802;28;20667;-84
2023/06/27 07:37:42;;;;;;;2.73;1.90;;;;;;;26.25;29.88;99133.19;6914348;28;20180;-85
2023/06/27 07:41:05;;;;;;;3.10;2.00;;;;;;;26.55;29.69;99149.38;6912370;28;20267;-85
2023/06/27 07:44:26;;;;;;;3.07;1.90;;;;;;;26.06;30.62;99143.38;6913701;28;20301;-86
2023/06/27 07:47:50;;;;;;;4.83;2.13;;;;;;;26.35;30.87;99142.16;6906385;28;20218;-85
2023/06/27 07:51:11;;;;;;;4.17;2.00;;;;;;;27.41;28.89;99124.63;6919527;28;20266;-86
2023/06/27 07:54:33;;;;;;;5.00;2.20;;;;;;;27.73;29.15;99132.84;6914634;28;20210;-84
2023/06/27 07:57:55;;;;;;;3.83;2.03;;;;;;;27.84;28.92;99109.38;6914446;28;20296;-84
2023/06/27 08:01:17;;;;;;;5.70;2.40;;;;;;;27.67;28.61;99117.47;6914503;28;20225;-85
2023/06/27 08:04:38;;;;;;;2.80;1.70;;;;;;;26.98;29.60;99146.16;6914783;28;20204;-85
2023/06/27 08:08:00;;;;;;;4.73;2.57;;;;;;;26.37;30.58;99158.47;6914492;28;20301;-84
2023/06/27 08:11:22;;;;;;;6.27;2.30;;;;;;;27.12;29.85;99158.06;6897447;28;20319;-85
2023/06/27 08:14:45;;;;;;;3.90;2.20;;;;;;;26.67;30.15;99144.19;6894296;28;20209;-86
2023/06/27 08:18:06;;;;;;;3.43;2.10;;;;;;;27.96;28.93;99131.84;6890340;28;20663;-84
2023/06/27 08:21:28;;;;;;;5.83;2.33;;;;;;;27.26;29.18;99136.78;6892864;28;20225;-84
2023/06/27 08:24:50;;;;;;;4.80;2.43;;;;;;;27.44;29.45;99129.56;6909696;28;20211;-84
2023/06/27 08:28:11;;;;;;;5.27;2.10;;;;;;;26.62;30.50;99127.66;6902406;28;20260;-85
2023/06/27 08:31:34;;;;;;;6.73;2.50;;;;;;;26.83;30.24;99126.22;6893119;28;20237;-84
2023/06/27 08:34:58;;;;;;;5.67;2.37;;;;;;;26.79;29.97;99122.41;6889172;28;20312;-86
2023/06/27 08:38:27;;;;;;;2.97;2.23;;;;;;;27.43;29.70;99108.53;6898209;28;20212;-85
2023/06/27 08:41:48;;;;;;;5.20;2.37;;;;;;;28.21;28.64;99112.69;6900495;28;20695;-85
2023/06/27 08:45:10;;;;;;;5.40;2.20;;;;;;;27.88;28.24;99022.50;6887636;28;20211;-86
2023/06/27 08:48:34;;;;;;;4.27;2.30;;;;;;;28.28;27.71;99107.53;6889213;28;20214;-86
2023/06/27 08:51:57;;;;;;;5.87;2.40;;;;;;;27.71;29.39;99099.09;6888230;28;20237;-84
2023/06/27 08:55:22;;;;;;;5.50;2.43;;;;;;;27.73;29.03;99099.59;6899273;28;20558;-84
2023/06/27 08:58:46;;;;;;;4.67;2.50;;;;;;;28.03;28.80;99094.25;6915386;28;20291;-84
2023/06/27 09:02:11;;;;;;;3.73;2.27;;;;;;;28.96;26.82;99097.00;6915920;28;20212;-83
2023/06/27 09:05:35;;;;;;;5.53;2.60;;;;;;;28.06;28.59;99078.91;6914320;28;20236;-86
2023/06/27 09:08:56;;;;;;;4.30;2.23;;;;;;;28.06;29.27;99096.38;6916026;28;20247;-84
2023/06/27 09:12:18;;;;;;;4.30;2.13;;;;;;;27.08;29.43;99092.56;6915912;28;20210;-84
2023/06/27 09:15:39;;;;;;;6.03;2.33;;;;;;;27.60;28.92;99105.97;6916614;28;20223;-85
2023/06/27 09:19:01;;;;;;;3.73;2.40;;;;;;;27.83;28.24;99094.69;6913366;28;20216;-86
2023/06/27 09:22:25;;;;;;;5.40;2.70;;;;;;;25.25;32.30;99096.59;6915757;28;20706;-85
2023/06/27 09:25:47;;;;;;;8.30;2.40;;;;;;;27.68;29.30;99058.13;6915888;28;20249;-85
2023/06/27 09:29:08;;;;;;;4.40;2.60;;;;;;;29.15;27.54;99072.63;6913646;28;20319;-84
2023/06/27 09:32:56;;;;;;;3.07;2.40;;;;;;;29.36;27.60;99078.44;6913574;28;20211;-86
2023/06/27 09:36:30;;;;;;;3.37;2.30;;;;;;;29.00;26.96;99077.75;6906501;28;20310;-86
2023/06/27 09:39:53;;;;;;;3.77;2.37;;;;;;;30.20;25.60;99072.31;6898787;28;20251;-82
2023/06/27 09:43:15;;;;;;;5.37;2.57;;;;;;;30.12;25.12;99075.09;6889108;28;20643;-85
2023/06/27 09:46:36;;;;;;;5.47;2.60;;;;;;;29.51;26.74;99061.31;6887306;28;20201;-85
2023/06/27 09:49:58;;;;;;;5.37;2.43;;;;;;;30.40;25.30;99081.97;6897231;28;20322;-84
2023/06/27 09:53:19;;;;;;;3.43;2.37;;;;;;;30.76;24.35;99074.13;6921517;28;20247;-84
2023/06/27 09:56:42;;;;;;;3.27;2.20;;;;;;;29.73;25.67;99062.06;6916718;28;20214;-84
2023/06/27 10:00:06;;;;;;;4.17;2.30;;;;;;;29.96;25.42;99071.94;6890049;28;20236;-84
2023/06/27 10:03:28;;;;;;;7.30;2.40;;;;;;;29.48;26.73;99059.22;6909286;28;20210;-84
2023/06/27 10:06:49;;;;;;;3.90;2.43;;;;;;;29.20;26.34;99053.03;6909196;28;20221;-84
2023/06/27 10:10:11;;;;;;;4.93;2.37;;;;;;;29.43;26.34;99060.16;6886160;28;20261;-84
2023/06/27 10:13:35;;;;;;;3.40;2.10;;;;;;;29.36;26.61;99073.69;6883640;28;20301;-83
2023/06/27 10:16:56;;;;;;;3.97;2.27;;;;;;;30.15;25.72;99069.72;6883101;28;20344;-82
2023/06/27 10:20:19;;;;;;;2.30;2.03;;;;;;;29.91;24.98;99066.53;6883462;28;20232;-82
2023/06/27 10:23:43;;;;;;;2.67;2.20;;;;;;;29.37;25.99;99067.00;6883062;28;20246;-83
2023/06/27 10:27:07;;;;;;;5.00;2.70;;;;;;;28.51;26.41;99070.41;6882716;28;20227;-83
2023/06/27 10:30:30;;;;;;;22.87;12.43;;;;;;;29.14;26.97;99065.41;6884016;28;20235;-84
2023/06/27 10:33:53;;;;;;;4.63;2.73;;;;;;;29.34;26.20;99075.97;6883853;28;20341;-84
2023/06/27 10:37:22;;;;;;;5.70;2.67;;;;;;;29.06;25.64;99015.38;6882855;28;20709;-84
2023/06/27 10:41:12;;;;;;;4.23;2.10;;;;;;;29.46;25.80;99061.47;6881141;28;20265;-86
2023/06/27 10:44:36;;;;;;;4.30;2.33;;;;;;;29.48;26.01;99057.22;6883219;28;20199;-86
2023/06/27 10:48:03;;;;;;;3.83;2.30;;;;;;;29.59;26.17;99055.81;6880829;28;20611;-83
2023/06/27 10:51:25;;;;;;;6.57;2.30;;;;;;;29.60;25.65;99074.13;6883706;28;20362;-82
2023/06/27 10:54:48;;;;;;;3.73;2.20;;;;;;;29.20;26.19;99069.69;6882468;28;20219;-83
2023/06/27 10:58:14;;;;;;;4.63;2.43;;;;;;;29.43;25.44;99070.47;6879339;28;20211;-84
2023/06/27 11:01:35;;;;;;;5.63;2.43;;;;;;;29.85;25.11;99070.59;6882767;28;20232;-83
2023/06/27 11:04:58;;;;;;;3.13;2.03;;;;;;;30.13;24.68;99074.78;6882970;28;20301;-84
2023/06/27 11:08:21;;;;;;;3.63;2.47;;;;;;;28.91;26.05;99072.09;6882598;28;20309;-83
2023/06/27 11:11:53;;;;;;;3.57;2.13;;;;;;;27.83;27.11;99075.28;6882458;28;20276;-85
2023/06/27 11:15:15;;;;;;;2.93;2.60;;;;;;;28.70;26.51;99073.78;6911494;28;20196;-84
2023/06/27 11:18:37;;;;;;;1.97;1.80;;;;;;;28.80;26.23;99078.25;6913467;28;20263;-83
2023/06/27 11:22:00;;;;;;;3.97;2.00;;;;;;;28.80;25.96;99078.25;6912281;28;20759;-83
2023/06/27 11:25:21;;;;;;;3.40;2.63;;;;;;;27.57;26.98;99048.38;6913791;28;20251;-84
2023/06/27 11:39:15;;;;;;;3.97;2.30;;;;;;;28.81;26.01;99058.50;8161297;22;20236;-83
2023/06/27 11:42:37;;;;;;;2.97;2.67;;;;;;;29.03;25.66;99044.63;6935679;28;20244;-81
2023/06/27 11:46:00;;;;;;;3.40;2.33;;;;;;;29.05;25.73;99059.00;6954045;22;20391;-81
2023/06/27 11:49:22;;;;;;;5.00;2.20;;;;;;;29.68;24.76;99037.22;6964305;28;20215;-81
2023/06/27 11:52:44;;;;;;;3.83;2.10;;;;;;;30.02;24.36;99048.38;6975022;28;20266;-82
2023/06/27 11:56:08;;;;;;;2.47;2.27;;;;;;;30.15;24.44;99053.03;6977039;28;20302;-82
2023/06/27 11:59:32;;;;;;;4.43;2.03;;;;;;;29.77;23.92;99024.16;6962535;28;20209;-81
2023/06/27 12:02:55;;;;;;;4.33;2.27;;;;;;;29.03;25.96;99038.25;6948184;28;20300;-82
2023/06/27 12:06:25;;;;;;;3.47;2.27;;;;;;;29.50;24.92;99037.47;6953411;28;20228;-84
2023/06/27 12:09:46;;;;;;;12.17;10.87;;;;;;;29.96;24.02;98957.13;6960406;28;20560;-81
2023/06/27 12:13:09;;;;;;;26.73;24.23;;;;;;;30.79;23.59;99010.22;6946585;28;20207;-81
2023/06/27 12:16:33;;;;;;;2.87;2.50;;;;;;;29.69;24.91;99005.50;6946280;28;20319;-81
2023/06/27 12:19:55;;;;;;;8.40;7.13;;;;;;;29.71;24.40;99008.75;6960519;28;20226;-82
2023/06/27 12:23:16;;;;;;;4.23;2.40;;;;;;;30.01;24.02;99023.69;6958890;28;20268;-81
2023/06/27 12:26:39;;;;;;;2.43;2.10;;;;;;;29.60;23.80;98993.53;6973692;28;20370;-81
2023/06/27 12:30:02;;;;;;;2.13;1.90;;;;;;;30.05;24.14;98997.69;6954813;28;20223;-81
2023/06/27 12:33:24;;;;;;;5.00;2.77;;;;;;;29.73;24.46;99008.44;6970304;28;20734;-81
2023/06/27 12:36:48;;;;;;;2.93;2.20;;;;;;;28.40;25.23;98951.66;6964705;28;20319;-84
2023/06/27 12:40:11;;;;;;;4.37;2.00;;;;;;;27.79;26.70;99004.16;6976361;28;20199;-82
2023/06/27 12:43:32;;;;;;;4.43;2.37;;;;;;;28.28;26.30;98977.19;6979261;28;20297;-82
2023/06/27 12:46:55;;;;;;;3.17;2.30;;;;;;;28.80;25.84;98990.25;6977761;28;20360;-87
2023/06/27 12:50:18;;;;;;;2.27;2.03;;;;;;;29.11;25.23;98987.47;6971947;28;20233;-81
2023/06/27 12:53:39;;;;;;;3.73;2.20;;;;;;;29.05;25.52;98989.59;6969472;28;20345;-82
2023/06/27 12:57:01;;;;;;;4.50;2.10;;;;;;;30.32;23.62;98983.44;6971297;28;20237;-82
2023/06/27 13:00:22;;;;;;;4.40;2.53;;;;;;;29.76;24.41;98966.09;6970890;28;20209;-82
2023/06/27 13:03:45;;;;;;;4.73;2.33;;;;;;;29.73;24.56;98970.31;6970813;28;20201;-82
2023/06/27 13:07:08;;;;;;;3.70;2.17;;;;;;;29.69;24.32;98962.97;6957163;28;20233;-82
2023/06/27 13:10:29;;;;;;;4.27;2.13;;;;;;;29.56;25.26;98972.28;6971976;28;20230;-82
2023/06/27 13:13:51;;;;;;;4.47;2.10;;;;;;;29.27;24.89;98972.84;6975124;28;20202;-82
2023/06/27 13:17:12;;;;;;;5.53;2.20;;;;;;;29.26;24.80;98975.94;6970775;28;20226;-81
2023/06/27 13:20:35;;;;;;;4.07;2.30;;;;;;;29.60;24.59;98964.94;6973887;28;20662;-82
2023/06/27 13:23:57;;;;;;;3.67;2.23;;;;;;;29.13;25.27;98960.22;6950017;28;20572;-82
2023/06/27 13:27:19;;;;;;;5.47;2.60;;;;;;;29.33;24.49;98954.06;6943800;28;20233;-82
2023/06/27 13:30:41;;;;;;;2.93;2.00;;;;;;;29.91;24.08;98941.38;6948095;28;20229;-81
2023/06/27 13:34:03;;;;;;;6.27;2.40;;;;;;;29.27;24.84;98933.13;6943177;28;20203;-82
2023/06/27 13:37:26;;;;;;;5.17;2.17;;;;;;;29.59;25.00;98938.25;6942632;28;20239;-82
2023/06/27 13:40:48;;;;;;;4.43;2.20;;;;;;;29.92;24.37;98939.44;6943653;28;20236;-81
2023/06/27 13:44:11;;;;;;;4.40;2.63;;;;;;;29.96;23.61;98937.66;6968133;28;20212;-82
2023/06/27 13:47:32;;;;;;;4.27;2.60;;;;;;;29.45;24.58;98935.63;6961333;28;20234;-82
2023/06/27 13:50:54;;;;;;;6.40;2.63;;;;;;;29.28;24.75;98941.16;6971649;28;20261;-82
2023/06/27 13:54:17;;;;;;;3.33;2.10;;;;;;;29.38;24.60;98934.47;6948667;28;20267;-82
2023/06/27 13:57:38;;;;;;;4.37;2.83;;;;;;;28.87;24.34;98885.13;6944547;28;20231;-82
2023/06/27 14:01:00;;;;;;;6.40;2.27;;;;;;;29.04;24.16;98924.09;6945861;28;20207;-81
2023/06/27 14:04:22;;;;;;;3.40;2.20;;;;;;;29.22;24.23;98924.94;6944035;28;20225;-82
2023/06/27 14:07:43;;;;;;;4.43;2.20;;;;;;;29.71;22.87;98914.25;6958470;28;20712;-82
2023/06/27 14:11:13;;;;;;;4.93;2.43;;;;;;;29.79;22.52;98907.88;6973096;28;20231;-81
2023/06/27 14:14:34;;;;;;;2.87;2.13;;;;;;;29.30;23.86;98919.41;6973104;28;20236;-81
2023/06/27 14:17:56;;;;;;;3.20;2.20;;;;;;;29.52;23.02;98926.78;6972602;28;20228;-81
2023/06/27 14:21:17;;;;;;;3.17;2.43;;;;;;;30.47;21.87;98906.97;6981248;28;20384;-81
2023/06/27 14:24:39;;;;;;;6.27;2.30;;;;;;;30.08;22.17;98901.66;6993075;28;20202;-81
2023/06/27 14:28:03;;;;;;;4.93;2.30;;;;;;;30.02;21.58;98920.44;6989747;28;20257;-82
2023/06/27 14:31:25;;;;;;;3.70;2.30;;;;;;;29.33;22.41;98912.38;6956921;28;20214;-81
2023/06/27 14:34:47;;;;;;;4.03;2.27;;;;;;;29.27;22.07;98897.84;6946394;28;20242;-81
2023/06/27 14:38:08;;;;;;;4.37;2.17;;;;;;;29.62;22.31;98888.44;6945583;28;20274;-81
2023/06/27 14:41:30;;;;;;;3.07;2.13;;;;;;;29.01;22.51;98901.69;6948355;28;20345;-82
2023/06/27 14:44:52;;;;;;;3.57;2.33;;;;;;;29.10;22.25;98900.59;6948376;28;20261;-82
2023/06/27 14:48:14;;;;;;;5.10;2.30;;;;;;;29.29;22.33;98903.88;6947701;28;20303;-83
2023/06/27 14:51:36;;;;;;;3.00;2.33;;;;;;;29.62;22.30;98905.09;6952001;28;20284;-82
2023/06/27 14:54:58;;;;;;;5.60;2.23;;;;;;;30.22;22.03;98902.28;6953090;28;20248;-82
2023/06/27 14:58:19;;;;;;;2.97;2.27;;;;;;;30.71;21.14;98888.59;6952531;28;20319;-83
2023/06/27 15:01:42;;;;;;;3.57;2.30;;;;;;;30.43;21.08;98881.78;6953366;28;20206;-82
2023/06/27 15:05:04;;;;;;;3.73;2.23;;;;;;;30.71;21.22;98880.22;6951264;28;20575;-82
2023/06/27 15:08:26;;;;;;;3.20;2.20;;;;;;;30.37;21.45;98885.88;6952218;28;20641;-82
2023/06/27 15:11:48;;;;;;;2.83;2.23;;;;;;;30.12;21.43;98885.94;6952523;28;20286;-82
2023/06/27 15:15:10;;;;;;;3.93;2.10;;;;;;;29.76;22.79;98880.72;6952897;28;20211;-82
2023/06/27 15:18:33;;;;;;;2.93;2.33;;;;;;;29.20;23.10;98871.69;6952090;28;20256;-82
2023/06/27 15:21:55;;;;;;;3.07;2.13;;;;;;;29.82;22.82;98870.25;6948410;28;20212;-81
2023/06/27 15:25:17;;;;;;;1.93;1.80;;;;;;;29.78;22.00;98822.84;6947707;28;20204;-82
2023/06/27 15:28:38;;;;;;;5.37;2.20;;;;;;;29.64;22.95;98868.63;6949994;28;20329;-82
2023/06/27 15:32:00;;;;;;;4.27;2.20;;;;;;;30.73;22.81;98858.44;6956607;28;20314;-82
2023/06/27 15:35:23;;;;;;;6.40;2.30;;;;;;;29.98;22.59;98855.53;6972183;28;20208;-82
2023/06/27 15:38:46;;;;;;;4.07;2.17;;;;;;;30.42;22.75;98852.31;6976230;28;20206;-82
2023/06/27 15:42:07;;;;;;;4.17;2.10;;;;;;;30.61;22.19;98849.13;6960620;28;20303;-82
2023/06/27 15:45:29;;;;;;;2.47;2.20;;;;;;;29.28;23.98;98820.88;6951567;28;20344;-82
2023/06/27 15:48:50;;;;;;;3.00;2.07;;;;;;;30.00;23.35;98849.63;6950040;28;20282;-82
2023/06/27 15:52:13;;;;;;;3.87;2.00;;;;;;;29.57;23.97;98848.84;6948020;28;20586;-81
2023/06/27 15:55:35;;;;;;;4.47;2.03;;;;;;;29.20;24.05;98847.47;6947740;28;20206;-82
2023/06/27 15:58:56;;;;;;;2.90;1.90;;;;;;;28.93;24.47;98828.31;6964492;28;20209;-86
2023/06/27 16:02:18;;;;;;;3.80;2.10;;;;;;;29.30;24.33;98840.81;6985416;28;20663;-82
2023/06/27 16:05:39;;;;;;;3.27;2.30;;;;;;;29.65;23.53;98842.47;6978473;28;20303;-82